Time;durP1;ratioP1;P1;durP2;ratioP2;P2;SDS_P1;SDS_P2;PMS_P1;PMS_P2;Temp;Humidity;BMP_temperature;BMP_pressure;BME280_temperature;BME280_humidity;BME280_pressure;Samples;Min_cycle;Max_cycle;Signal;HPM_P1;HPM_P2
2023/12/21 00:01:47;;;;;;;4.12;2.70;;;;;;;3.60;100.00;100110.34;5608266;31;33914;-71
2023/12/21 00:04:50;;;;;;;4.82;2.20;;;;;;;3.66;100.00;100115.06;5608417;31;34037;-72
2023/12/21 00:07:53;;;;;;;5.87;2.90;;;;;;;3.65;100.00;100103.75;5607541;31;34096;-72
2023/12/21 00:10:58;;;;;;;5.53;2.60;;;;;;;3.71;100.00;100097.97;5608563;31;35484;-72
2023/12/21 00:14:00;;;;;;;3.83;2.35;;;;;;;3.80;100.00;100097.19;5608024;31;34591;-72
2023/12/21 00:17:03;;;;;;;3.78;2.20;;;;;;;3.82;100.00;100095.28;5608225;31;34650;-72
2023/12/21 00:20:08;;;;;;;3.28;2.28;;;;;;;3.89;100.00;100091.16;5608470;31;34254;-72
2023/12/21 00:23:11;;;;;;;5.15;2.30;;;;;;;3.96;100.00;100094.09;5607974;31;34729;-72
2023/12/21 00:26:14;;;;;;;4.20;2.60;;;;;;;3.84;100.00;100090.72;5607630;31;34018;-72
2023/12/21 00:29:17;;;;;;;4.28;2.28;;;;;;;3.87;100.00;100090.44;5607903;31;33823;-72
2023/12/21 00:32:20;;;;;;;3.53;2.10;;;;;;;3.90;100.00;100105.09;5608085;31;34682;-72
2023/12/21 00:35:23;;;;;;;5.03;2.20;;;;;;;3.79;100.00;100087.66;5608092;31;34035;-72
2023/12/21 00:38:26;;;;;;;4.60;2.33;;;;;;;3.79;100.00;100087.66;5608000;31;34008;-72
2023/12/21 00:41:29;;;;;;;4.57;2.30;;;;;;;3.88;100.00;100088.66;5607463;31;33956;-72
2023/12/21 00:44:32;;;;;;;5.15;1.92;;;;;;;3.94;100.00;100083.72;5608073;31;34879;-72
2023/12/21 00:47:35;;;;;;;4.90;2.10;;;;;;;3.91;100.00;100084.00;5607877;31;33955;-72
2023/12/21 00:50:38;;;;;;;3.78;1.95;;;;;;;4.02;100.00;100075.16;5609231;31;35057;-72
2023/12/21 00:53:42;;;;;;;3.75;1.90;;;;;;;3.94;100.00;100073.22;5609670;31;34040;-72
2023/12/21 00:56:44;;;;;;;2.85;1.60;;;;;;;4.00;100.00;100069.22;5610446;31;33935;-72
2023/12/21 00:59:49;;;;;;;4.18;1.70;;;;;;;3.96;100.00;100065.22;5610426;31;34946;-71
2023/12/21 01:02:52;;;;;;;4.32;1.70;;;;;;;4.04;100.00;100064.53;5596331;31;34033;-71
2023/12/21 01:05:56;;;;;;;2.95;1.67;;;;;;;4.02;100.00;100058.59;5610492;31;34010;-71
2023/12/21 01:08:58;;;;;;;3.97;1.80;;;;;;;3.99;100.00;100062.31;5609375;31;35219;-72
2023/12/21 01:12:02;;;;;;;5.90;2.08;;;;;;;3.92;100.00;100056.75;5609844;31;34014;-71
2023/12/21 01:15:07;;;;;;;3.90;1.73;;;;;;;3.91;100.00;100054.28;5610015;31;34104;-72
2023/12/21 01:18:10;;;;;;;3.47;1.90;;;;;;;3.88;100.00;100057.16;5610422;31;33964;-71
2023/12/21 01:21:12;;;;;;;4.22;2.00;;;;;;;3.83;100.00;100062.81;5609220;31;34688;-72
2023/12/21 01:24:16;;;;;;;4.68;2.15;;;;;;;3.68;100.00;100058.88;5609896;31;34040;-72
2023/12/21 01:27:20;;;;;;;4.57;2.20;;;;;;;3.54;100.00;100053.97;5609983;31;35320;-72
2023/12/21 01:30:34;;;;;;;4.55;2.40;;;;;;;3.41;100.00;100045.50;5610008;31;33959;-72
2023/12/21 01:33:38;;;;;;;4.20;2.00;;;;;;;3.33;100.00;100042.72;5609930;31;34147;-72
2023/12/21 01:36:41;;;;;;;4.35;1.80;;;;;;;3.33;100.00;100038.31;5609958;31;34021;-72
2023/12/21 01:39:44;;;;;;;3.17;1.95;;;;;;;3.26;100.00;100029.28;5609873;31;34606;-72
2023/12/21 01:42:49;;;;;;;3.37;1.90;;;;;;;3.34;100.00;100023.41;5610125;31;34736;-72
2023/12/21 01:45:57;;;;;;;4.57;2.00;;;;;;;3.32;100.00;100022.69;5609208;31;34384;-72
2023/12/21 01:49:01;;;;;;;3.97;1.83;;;;;;;3.25;100.00;100017.13;5609141;31;33961;-72
2023/12/21 01:52:05;;;;;;;4.53;2.03;;;;;;;3.43;100.00;100012.12;5609814;31;34003;-72
2023/12/21 01:55:12;;;;;;;3.62;2.10;;;;;;;3.38;100.00;100009.06;5609825;31;34853;-72
2023/12/21 01:58:16;;;;;;;5.65;2.00;;;;;;;3.50;100.00;100013.25;5596216;31;34182;-72
2023/12/21 02:01:19;;;;;;;4.87;2.05;;;;;;;3.39;100.00;100008.09;5609355;31;33860;-71
2023/12/21 02:04:24;;;;;;;6.37;2.00;;;;;;;3.41;100.00;100004.38;5609946;31;34286;-72
2023/12/21 02:07:28;;;;;;;4.95;2.00;;;;;;;3.42;100.00;100005.22;5609689;31;33935;-72
2023/12/21 02:10:32;;;;;;;6.60;1.80;;;;;;;3.54;100.00;100001.53;5608996;31;33582;-72
2023/12/21 02:13:36;;;;;;;4.10;1.70;;;;;;;3.67;100.00;99996.91;5609424;31;34140;-72
2023/12/21 02:16:51;;;;;;;3.03;1.62;;;;;;;3.86;100.00;99998.75;5609178;31;33990;-72
2023/12/21 02:19:54;;;;;;;4.80;1.83;;;;;;;4.00;100.00;99985.25;5608742;31;34996;-72
2023/12/21 02:23:03;;;;;;;4.15;1.67;;;;;;;4.04;100.00;99986.63;5609535;31;34062;-72
2023/12/21 02:26:11;;;;;;;3.55;1.67;;;;;;;4.07;100.00;99988.97;5595629;31;33994;-73
2023/12/21 02:29:14;;;;;;;3.42;1.37;;;;;;;4.20;100.00;99983.47;5609836;31;34801;-72
2023/12/21 02:32:17;;;;;;;8.32;1.98;;;;;;;4.30;100.00;99977.28;5609421;31;34720;-72
2023/12/21 02:35:20;;;;;;;4.10;1.50;;;;;;;4.41;100.00;99972.81;5609418;31;34726;-72
2023/12/21 02:38:23;;;;;;;5.25;2.37;;;;;;;4.50;100.00;99966.75;5609599;31;33984;-72
2023/12/21 02:41:26;;;;;;;3.72;1.50;;;;;;;4.49;100.00;99960.69;5609311;31;34031;-72
2023/12/21 02:44:29;;;;;;;4.05;1.42;;;;;;;4.52;100.00;99951.69;5609255;31;33999;-72
2023/12/21 02:47:34;;;;;;;3.08;1.40;;;;;;;4.59;100.00;99964.13;5609300;31;34677;-72
2023/12/21 02:50:37;;;;;;;3.90;1.48;;;;;;;4.55;100.00;99946.97;5608483;31;33956;-72
2023/12/21 02:53:40;;;;;;;5.30;1.30;;;;;;;4.53;100.00;99950.72;5609640;31;34165;-72
2023/12/21 02:56:45;;;;;;;5.30;1.58;;;;;;;4.46;100.00;99944.34;5609131;31;34849;-72
2023/12/21 02:59:48;;;;;;;3.35;1.40;;;;;;;4.38;100.00;99939.81;5609256;31;34590;-72
2023/12/21 03:02:51;;;;;;;2.90;1.48;;;;;;;4.33;100.00;99944.62;5609011;31;33930;-72
2023/12/21 03:05:55;;;;;;;3.80;1.45;;;;;;;4.16;100.00;99940.09;5609046;31;34051;-72
2023/12/21 03:08:57;;;;;;;3.83;1.42;;;;;;;3.98;100.00;99939.09;5609212;31;34627;-72
2023/12/21 03:12:01;;;;;;;3.00;1.37;;;;;;;3.85;100.00;99940.19;5608924;31;34817;-72
2023/12/21 03:15:04;;;;;;;5.00;1.52;;;;;;;3.85;100.00;99948.06;5608267;31;35017;-72
2023/12/21 03:18:07;;;;;;;4.97;1.65;;;;;;;3.76;100.00;99948.88;5609186;31;34561;-72
2023/12/21 03:21:10;;;;;;;4.40;1.48;;;;;;;3.70;100.00;99936.28;5608077;31;34066;-72
2023/12/21 03:24:14;;;;;;;3.58;1.42;;;;;;;3.74;100.00;99934.22;5609061;31;34757;-71
2023/12/21 03:27:18;;;;;;;6.43;1.62;;;;;;;3.86;100.00;99933.16;5608750;31;34629;-72
2023/12/21 03:30:22;;;;;;;4.32;1.40;;;;;;;3.88;100.00;99933.81;5608822;31;33908;-71
2023/12/21 03:33:25;;;;;;;2.60;1.20;;;;;;;3.86;100.00;99931.38;5608614;31;34568;-71
2023/12/21 03:36:28;;;;;;;4.45;1.60;;;;;;;3.85;100.00;99932.31;5609089;31;34703;-72
2023/12/21 03:39:31;;;;;;;3.72;1.40;;;;;;;3.82;100.00;99922.09;5607905;31;34085;-71
2023/12/21 03:42:35;;;;;;;4.28;1.52;;;;;;;3.81;100.00;99933.56;5608657;31;34833;-72
2023/12/21 03:45:40;;;;;;;5.25;1.40;;;;;;;3.73;100.00;99930.75;5608888;31;34000;-71
2023/12/21 03:48:45;;;;;;;4.82;1.40;;;;;;;3.72;100.00;99923.06;5607909;31;33972;-71
2023/12/21 03:51:48;;;;;;;3.53;1.40;;;;;;;3.62;100.00;99916.94;5608568;31;34240;-71
2023/12/21 03:54:53;;;;;;;3.33;1.40;;;;;;;3.59;100.00;99917.19;5608681;31;32805;-72
2023/12/21 03:57:58;;;;;;;4.87;1.40;;;;;;;3.72;100.00;99912.56;5607630;31;34089;-71
2023/12/21 04:01:01;;;;;;;6.70;1.45;;;;;;;3.76;100.00;99909.53;5608864;31;33973;-71
2023/12/21 04:04:05;;;;;;;2.95;1.10;;;;;;;4.06;100.00;99913.84;5608288;31;34049;-71
2023/12/21 04:07:08;;;;;;;2.53;1.20;;;;;;;4.28;100.00;99908.31;5607563;31;34002;-71
2023/12/21 04:10:12;;;;;;;4.32;1.90;;;;;;;4.65;100.00;99900.50;5608333;31;34000;-71
2023/12/21 04:13:15;;;;;;;4.25;2.00;;;;;;;4.93;100.00;99893.53;5607993;31;35095;-70
2023/12/21 04:16:18;;;;;;;4.18;2.00;;;;;;;5.05;100.00;99900.25;5607488;31;34936;-71
2023/12/21 04:19:21;;;;;;;4.28;2.35;;;;;;;5.06;100.00;99895.81;5608202;31;34875;-72
2023/12/21 04:22:24;;;;;;;4.70;2.50;;;;;;;5.04;100.00;99893.31;5608071;31;33928;-71
2023/12/21 04:25:27;;;;;;;4.18;2.90;;;;;;;5.12;100.00;99888.19;5607995;31;33901;-71
2023/12/21 04:28:30;;;;;;;5.18;3.47;;;;;;;5.15;100.00;99885.25;5608019;31;34007;-72
2023/12/21 04:31:33;;;;;;;8.30;4.65;;;;;;;5.20;100.00;99890.09;5608489;31;33958;-72
2023/12/21 04:34:36;;;;;;;6.53;4.30;;;;;;;5.31;100.00;99879.37;5607318;31;34935;-71
2023/12/21 04:37:39;;;;;;;7.93;4.93;;;;;;;5.33;100.00;99881.84;5608031;31;33889;-71
2023/12/21 04:40:42;;;;;;;8.88;6.10;;;;;;;5.25;100.00;99882.59;5607736;31;33982;-71
2023/12/21 04:43:45;;;;;;;9.90;7.00;;;;;;;5.19;100.00;99872.66;5606932;31;33908;-71
2023/12/21 04:46:49;;;;;;;12.30;8.48;;;;;;;5.15;100.00;99873.91;5607901;31;33915;-71
2023/12/21 04:49:52;;;;;;;13.35;8.88;;;;;;;5.10;100.00;99866.47;5607526;31;34818;-70
2023/12/21 04:52:55;;;;;;;11.80;9.27;;;;;;;5.08;100.00;99862.34;5606860;31;33929;-70
2023/12/21 04:55:57;;;;;;;12.60;9.48;;;;;;;5.01;100.00;99861.25;5607730;31;34067;-70
2023/12/21 04:59:01;;;;;;;11.68;9.63;;;;;;;4.94;100.00;99861.00;5607064;31;34714;-70
2023/12/21 05:02:04;;;;;;;11.52;9.20;;;;;;;4.91;100.00;99849.94;5607562;31;34632;-70
2023/12/21 05:05:07;;;;;;;12.63;9.57;;;;;;;4.88;100.00;99848.44;5606559;31;33924;-70
2023/12/21 05:08:10;;;;;;;12.55;9.75;;;;;;;4.89;100.00;99849.28;5607328;31;34019;-71
2023/12/21 05:11:13;;;;;;;15.32;10.18;;;;;;;4.87;100.00;99832.81;5607371;31;35274;-70
2023/12/21 05:14:16;;;;;;;12.13;9.52;;;;;;;4.78;100.00;99824.00;5607303;31;34031;-70
2023/12/21 05:17:20;;;;;;;12.95;9.20;;;;;;;4.63;100.00;99821.00;5607213;31;35265;-70
2023/12/21 05:20:22;;;;;;;11.93;9.02;;;;;;;4.41;100.00;99826.59;5607393;31;33985;-71
2023/12/21 05:23:25;;;;;;;13.10;8.70;;;;;;;4.22;100.00;99819.59;5606598;31;33965;-70
2023/12/21 05:26:28;;;;;;;13.23;8.27;;;;;;;4.10;100.00;99817.25;5606246;31;34073;-70
2023/12/21 05:29:31;;;;;;;13.95;7.50;;;;;;;3.86;100.00;99815.06;5607013;31;33932;-71
2023/12/21 05:32:34;;;;;;;12.90;8.43;;;;;;;3.70;100.00;99813.00;5606821;31;34583;-70
2023/12/21 05:35:37;;;;;;;13.00;8.00;;;;;;;3.61;100.00;99813.00;5607050;31;33986;-71
2023/12/21 05:38:40;;;;;;;12.82;8.32;;;;;;;3.72;100.00;99803.22;5609200;31;33913;-70
2023/12/21 05:41:43;;;;;;;13.70;8.60;;;;;;;3.70;100.00;99818.25;5610235;31;34889;-71
2023/12/21 05:44:45;;;;;;;11.50;8.18;;;;;;;3.70;100.00;99806.91;5608944;31;34663;-71
2023/12/21 05:47:49;;;;;;;11.52;7.97;;;;;;;3.77;100.00;99801.00;5609614;31;34333;-71
2023/12/21 05:50:52;;;;;;;11.57;8.15;;;;;;;3.67;100.00;99799.34;5609723;31;34808;-71
2023/12/21 05:53:55;;;;;;;10.23;7.20;;;;;;;3.56;100.00;99807.34;5609602;31;34266;-71
2023/12/21 05:56:59;;;;;;;9.27;6.62;;;;;;;3.48;100.00;99800.16;5610051;31;34038;-71
2023/12/21 06:00:04;;;;;;;10.93;5.85;;;;;;;3.35;100.00;99795.16;5609609;31;33970;-70
2023/12/21 06:03:07;;;;;;;10.65;6.62;;;;;;;3.32;100.00;99792.00;5610010;31;33935;-70
2023/12/21 06:06:11;;;;;;;8.48;5.37;;;;;;;3.24;100.00;99797.09;5609585;31;34810;-71
2023/12/21 06:09:14;;;;;;;12.40;5.40;;;;;;;3.17;100.00;99796.78;5609425;31;35012;-70
2023/12/21 06:12:17;;;;;;;10.15;5.72;;;;;;;3.09;100.00;99804.50;5609274;31;34692;-70
2023/12/21 06:15:21;;;;;;;11.70;5.90;;;;;;;2.91;100.00;99788.59;5609338;31;34606;-70
2023/12/21 06:18:24;;;;;;;9.18;6.12;;;;;;;2.85;100.00;99788.31;5609193;31;34030;-69
2023/12/21 06:21:27;;;;;;;9.45;6.20;;;;;;;2.81;100.00;99774.63;5609099;31;34045;-70
2023/12/21 06:24:30;;;;;;;11.27;6.22;;;;;;;2.66;100.00;99777.75;5609347;31;34186;-70
2023/12/21 06:27:33;;;;;;;10.57;6.78;;;;;;;2.68;100.00;99770.59;5609211;31;33861;-70
2023/12/21 06:30:36;;;;;;;10.93;6.82;;;;;;;2.61;100.00;99765.06;5609285;31;34026;-70
2023/12/21 06:33:39;;;;;;;11.48;7.47;;;;;;;2.56;100.00;99768.09;5609046;31;33967;-70
2023/12/21 06:36:42;;;;;;;10.40;7.18;;;;;;;2.53;100.00;99768.31;5610899;31;34284;-68
2023/12/21 06:39:45;;;;;;;12.07;7.55;;;;;;;2.55;100.00;99766.41;5610910;31;33777;-69
2023/12/21 06:42:48;;;;;;;13.13;8.40;;;;;;;2.53;100.00;99757.84;5609600;31;34068;-69
2023/12/21 06:45:54;;;;;;;12.85;8.15;;;;;;;2.49;100.00;99756.47;5609470;31;34012;-69
2023/12/21 06:48:57;;;;;;;13.57;9.18;;;;;;;2.45;100.00;99757.69;5608223;31;34603;-70
2023/12/21 06:52:01;;;;;;;16.98;9.50;;;;;;;2.38;100.00;99755.72;5608966;31;34101;-70
2023/12/21 06:55:05;;;;;;;14.70;9.30;;;;;;;2.36;100.00;99758.47;5608840;31;34228;-70
2023/12/21 06:58:08;;;;;;;17.55;10.00;;;;;;;2.40;100.00;99754.63;5608748;31;34553;-70
2023/12/21 07:01:11;;;;;;;16.20;10.52;;;;;;;2.33;100.00;99750.03;5608728;31;34292;-70
2023/12/21 07:04:16;;;;;;;16.12;10.90;;;;;;;2.32;100.00;99751.03;5608841;31;34082;-69
2023/12/21 07:07:19;;;;;;;14.45;11.05;;;;;;;2.34;100.00;99751.69;5608907;31;34063;-70
2023/12/21 07:10:22;;;;;;;17.17;11.85;;;;;;;2.31;100.00;99771.13;5609388;31;34083;-70
2023/12/21 07:13:25;;;;;;;19.12;12.95;;;;;;;2.32;100.00;99762.31;5608614;31;33995;-70
2023/12/21 07:16:31;;;;;;;20.17;13.73;;;;;;;2.42;100.00;99775.47;5608599;31;34013;-70
2023/12/21 07:19:37;;;;;;;18.52;14.18;;;;;;;2.42;100.00;99757.13;5608613;31;35008;-70
2023/12/21 07:22:40;;;;;;;20.85;14.77;;;;;;;2.38;100.00;99732.97;5608450;31;34703;-70
2023/12/21 07:25:43;;;;;;;20.75;14.80;;;;;;;2.28;100.00;99734.72;5608570;31;34251;-69
2023/12/21 07:28:46;;;;;;;21.27;16.00;;;;;;;2.24;100.00;99722.88;5608515;31;33957;-70
2023/12/21 07:31:49;;;;;;;22.50;17.45;;;;;;;2.17;100.00;99725.19;5608619;31;34124;-70
2023/12/21 07:34:52;;;;;;;25.15;18.20;;;;;;;2.14;100.00;99738.53;5608484;31;33978;-69
2023/12/21 07:37:55;;;;;;;26.10;18.15;;;;;;;2.10;100.00;99731.06;5608511;31;34661;-70
2023/12/21 07:40:58;;;;;;;24.17;18.48;;;;;;;2.10;100.00;99721.44;5608249;31;33877;-70
2023/12/21 07:44:01;;;;;;;22.50;17.55;;;;;;;2.23;100.00;99731.69;5608551;31;34070;-70
2023/12/21 07:47:04;;;;;;;26.23;18.73;;;;;;;2.28;100.00;99739.97;5608692;31;33929;-70
2023/12/21 07:50:07;;;;;;;24.17;18.48;;;;;;;2.41;100.00;99734.53;5607657;31;33908;-71
2023/12/21 07:53:11;;;;;;;27.95;17.55;;;;;;;2.63;100.00;99737.78;5607626;31;34000;-70
2023/12/21 07:56:14;;;;;;;23.25;16.73;;;;;;;2.70;100.00;99714.50;5607609;31;34193;-70
2023/12/21 07:59:18;;;;;;;23.23;17.17;;;;;;;2.82;100.00;99704.72;5607280;31;34137;-71
2023/12/21 08:02:20;;;;;;;26.37;16.27;;;;;;;2.95;100.00;99708.75;5608435;31;34638;-71
2023/12/21 08:05:24;;;;;;;21.73;14.60;;;;;;;3.14;100.00;99707.12;5608043;31;34533;-71
2023/12/21 08:08:27;;;;;;;22.23;14.20;;;;;;;3.72;100.00;99698.28;5608162;31;34011;-71
2023/12/21 08:11:30;;;;;;;23.80;15.30;;;;;;;4.07;100.00;99718.63;5607830;31;34024;-71
2023/12/21 08:14:35;;;;;;;21.73;15.68;;;;;;;4.29;100.00;99707.78;5607891;31;34015;-72
2023/12/21 08:17:40;;;;;;;22.20;16.17;;;;;;;4.45;100.00;99708.97;5607294;31;34110;-71
2023/12/21 08:20:47;;;;;;;22.95;15.80;;;;;;;4.50;100.00;99712.81;5607198;31;33020;-71
2023/12/21 08:23:50;;;;;;;38.78;18.58;;;;;;;4.50;100.00;99707.56;5607772;31;33869;-71
2023/12/21 08:26:54;;;;;;;24.73;17.37;;;;;;;4.55;100.00;99710.56;5607852;31;33918;-71
2023/12/21 08:29:57;;;;;;;23.95;17.25;;;;;;;4.47;100.00;99705.22;5607702;31;34791;-75
2023/12/21 08:33:00;;;;;;;34.40;18.50;;;;;;;4.49;100.00;99711.16;5607794;31;33936;-69
2023/12/21 08:36:04;;;;;;;22.35;16.70;;;;;;;4.43;100.00;99703.03;5607002;31;34622;-69
2023/12/21 08:39:06;;;;;;;30.20;17.83;;;;;;;4.48;100.00;99703.41;5608061;31;34771;-72
2023/12/21 08:42:10;;;;;;;25.73;18.00;;;;;;;4.21;100.00;99699.78;5607717;31;33952;-72
2023/12/21 08:45:13;;;;;;;23.20;17.90;;;;;;;4.30;100.00;99712.06;5606567;31;33756;-72
2023/12/21 08:48:16;;;;;;;21.75;17.00;;;;;;;4.40;100.00;99722.53;5607588;31;33845;-71
2023/12/21 08:51:23;;;;;;;25.90;16.80;;;;;;;4.45;100.00;99712.44;5607282;31;34232;-72
2023/12/21 08:54:28;;;;;;;25.27;17.98;;;;;;;4.53;100.00;99698.56;5607312;31;34227;-72
2023/12/21 08:57:35;;;;;;;24.83;17.70;;;;;;;4.43;100.00;99693.34;5607164;31;33962;-71
2023/12/21 09:00:38;;;;;;;26.80;17.55;;;;;;;4.37;100.00;99697.38;5606810;31;34175;-71
2023/12/21 09:03:42;;;;;;;24.48;17.65;;;;;;;4.55;100.00;99699.25;5607007;31;34585;-72
2023/12/21 09:06:45;;;;;;;23.20;17.85;;;;;;;4.73;100.00;99700.94;5607474;31;34971;-72
2023/12/21 09:09:48;;;;;;;22.62;17.23;;;;;;;5.04;100.00;99685.66;5606990;31;34101;-72
2023/12/21 09:12:51;;;;;;;22.85;16.67;;;;;;;5.13;100.00;99699.72;5608510;31;34040;-72
2023/12/21 09:15:55;;;;;;;19.85;15.98;;;;;;;5.16;100.00;99697.63;5608911;31;35016;-72
2023/12/21 09:18:59;;;;;;;24.05;16.62;;;;;;;5.21;100.00;99687.47;5609739;31;33907;-72
2023/12/21 09:22:03;;;;;;;21.35;16.00;;;;;;;5.13;100.00;99679.50;5609747;31;33992;-71
2023/12/21 09:25:07;;;;;;;23.65;15.88;;;;;;;5.28;100.00;99677.16;5608898;31;33783;-71
2023/12/21 09:28:09;;;;;;;21.98;15.90;;;;;;;5.53;100.00;99679.03;5608743;31;34074;-72
2023/12/21 09:31:12;;;;;;;22.90;15.85;;;;;;;5.52;100.00;99669.47;5608709;31;34600;-72
2023/12/21 09:34:15;;;;;;;21.05;16.23;;;;;;;5.42;100.00;99662.66;5609330;31;34669;-71
2023/12/21 09:37:20;;;;;;;20.95;15.77;;;;;;;5.44;100.00;99640.47;5609401;31;35214;-71
2023/12/21 09:40:25;;;;;;;24.70;17.15;;;;;;;5.19;100.00;99641.25;5609539;31;33905;-72
2023/12/21 09:43:31;;;;;;;20.52;16.35;;;;;;;5.25;100.00;99643.28;5609310;31;33928;-71
2023/12/21 09:46:38;;;;;;;22.83;16.67;;;;;;;5.12;100.00;99646.31;5609214;31;33874;-71
2023/12/21 09:49:50;;;;;;;23.77;16.92;;;;;;;5.32;100.00;99639.09;5609110;31;34152;-73
2023/12/21 09:52:54;;;;;;;22.25;16.62;;;;;;;5.56;100.00;99617.38;5609301;31;34446;-71
2023/12/21 09:56:02;;;;;;;22.25;15.35;;;;;;;5.46;100.00;99612.22;5609273;31;33892;-72
2023/12/21 09:59:08;;;;;;;21.08;15.32;;;;;;;5.34;100.00;99605.56;5609408;31;33907;-72
2023/12/21 10:02:14;;;;;;;20.60;15.73;;;;;;;5.78;100.00;99614.22;5608666;31;34107;-72
2023/12/21 10:05:17;;;;;;;27.85;15.05;;;;;;;5.68;100.00;99606.44;5609372;31;34754;-71
2023/12/21 10:08:20;;;;;;;21.80;14.77;;;;;;;5.86;100.00;99602.91;5609246;31;34096;-72
2023/12/21 10:11:23;;;;;;;21.10;14.57;;;;;;;5.86;100.00;99590.56;5608005;31;34925;-72
2023/12/21 10:14:27;;;;;;;20.62;14.10;;;;;;;6.08;100.00;99584.81;5608231;31;33930;-72
2023/12/21 10:17:32;;;;;;;23.98;13.82;;;;;;;6.04;100.00;99575.56;5609017;31;34044;-71
2023/12/21 10:20:36;;;;;;;20.73;13.98;;;;;;;6.10;100.00;99566.19;5609004;31;34267;-71
2023/12/21 10:23:39;;;;;;;20.62;14.25;;;;;;;6.08;100.00;99550.56;5608495;31;34605;-72
2023/12/21 10:26:46;;;;;;;19.87;14.00;;;;;;;6.00;100.00;99549.72;5608290;31;34711;-71
2023/12/21 10:29:56;;;;;;;23.23;14.65;;;;;;;6.11;100.00;99523.09;5608887;31;33479;-71
2023/12/21 10:33:04;;;;;;;20.10;13.35;;;;;;;6.23;100.00;99532.34;5608245;31;34168;-73
2023/12/21 10:36:07;;;;;;;17.17;12.35;;;;;;;6.60;100.00;99524.00;5608183;31;34941;-71
2023/12/21 10:39:12;;;;;;;18.12;11.38;;;;;;;6.73;100.00;99511.16;5608691;31;34028;-72
2023/12/21 10:42:15;;;;;;;18.15;10.40;;;;;;;6.93;100.00;99499.31;5608963;31;34343;-73
2023/12/21 10:45:19;;;;;;;20.42;10.15;;;;;;;7.09;100.00;99495.84;5609729;31;34548;-72
2023/12/21 10:48:41;;;;;;;13.82;10.50;;;;;;;7.06;100.00;99468.97;5609019;31;34306;-72
2023/12/21 10:51:45;;;;;;;16.60;10.10;;;;;;;6.93;100.00;99451.84;5608865;31;33934;-73
2023/12/21 10:54:49;;;;;;;18.00;10.43;;;;;;;7.09;100.00;99447.53;5608858;31;33919;-72
2023/12/21 10:57:53;;;;;;;14.87;10.75;;;;;;;7.15;100.00;99438.97;5608772;31;33922;-72
2023/12/21 11:00:58;;;;;;;14.98;10.60;;;;;;;7.15;100.00;99431.88;5608962;31;34493;-73
2023/12/21 11:04:03;;;;;;;15.85;10.25;;;;;;;7.32;100.00;99404.44;5608903;31;34463;-72
2023/12/21 11:07:08;;;;;;;16.33;9.98;;;;;;;7.32;100.00;99404.44;5608633;31;34020;-72
2023/12/21 11:10:14;;;;;;;17.45;9.93;;;;;;;7.73;100.00;99396.34;5609074;31;33215;-73
2023/12/21 11:13:18;;;;;;;15.25;9.73;;;;;;;8.02;100.00;99380.66;5608701;31;33921;-71
2023/12/21 11:16:49;;;;;;;15.30;9.93;;;;;;;7.95;100.00;99377.06;5608463;31;34818;-71
2023/12/21 11:19:53;;;;;;;16.90;10.25;;;;;;;7.96;100.00;99372.59;5602345;31;34739;-71
2023/12/21 11:22:56;;;;;;;13.55;9.50;;;;;;;8.09;100.00;99367.53;5608492;31;34483;-71
2023/12/21 11:25:59;;;;;;;16.80;9.57;;;;;;;8.31;100.00;99363.28;5608415;31;35129;-71
2023/12/21 11:29:06;;;;;;;20.70;10.00;;;;;;;8.76;100.00;99355.28;5608904;31;34984;-73
2023/12/21 11:32:09;;;;;;;14.35;9.80;;;;;;;8.50;100.00;99349.56;5608500;31;35564;-72
2023/12/21 11:35:20;;;;;;;13.25;9.38;;;;;;;8.50;100.00;99337.19;5606482;31;34066;-72
2023/12/21 11:38:41;;;;;;;15.95;9.23;;;;;;;8.45;100.00;99341.34;5608292;31;34133;-72
2023/12/21 11:41:58;;;;;;;15.05;9.45;;;;;;;8.45;100.00;99323.69;5608607;31;35415;-72
2023/12/21 11:45:11;;;;;;;15.98;9.57;;;;;;;8.34;100.00;99320.63;5608509;31;34024;-71
2023/12/21 11:48:19;;;;;;;11.70;8.45;;;;;;;8.38;100.00;99306.87;5607444;31;33957;-72
2023/12/21 11:51:24;;;;;;;11.80;7.78;;;;;;;7.89;100.00;99305.66;5608260;31;34684;-72
2023/12/21 11:54:28;;;;;;;13.70;7.78;;;;;;;7.99;100.00;99293.03;5607490;31;34021;-71
2023/12/21 11:57:39;;;;;;;10.00;7.43;;;;;;;8.00;100.00;99290.19;5608184;31;35051;-71
2023/12/21 12:00:44;;;;;;;10.43;7.50;;;;;;;7.70;100.00;99278.69;5608254;31;35469;-71
2023/12/21 12:03:47;;;;;;;10.88;7.37;;;;;;;7.69;100.00;99279.72;5607839;31;34724;-72
2023/12/21 12:06:51;;;;;;;9.00;6.90;;;;;;;7.60;100.00;99274.69;5607767;31;34608;-72
2023/12/21 12:09:54;;;;;;;11.63;6.80;;;;;;;7.47;100.00;99264.69;5608072;31;33875;-71
2023/12/21 12:12:57;;;;;;;10.82;6.70;;;;;;;7.50;100.00;99250.34;5607865;31;34194;-71
2023/12/21 12:16:00;;;;;;;11.55;7.05;;;;;;;7.52;100.00;99245.69;5608149;31;34744;-72
2023/12/21 12:19:03;;;;;;;10.77;7.05;;;;;;;7.61;100.00;99241.97;5608423;31;34058;-73
2023/12/21 12:22:07;;;;;;;16.27;7.60;;;;;;;7.60;100.00;99227.97;5608134;31;34917;-73
2023/12/21 12:25:10;;;;;;;9.75;7.80;;;;;;;7.67;100.00;99213.06;5608050;31;34101;-72
2023/12/21 12:28:13;;;;;;;13.68;8.18;;;;;;;7.72;100.00;99216.00;5607739;31;33895;-72
2023/12/21 12:31:17;;;;;;;11.88;8.57;;;;;;;7.57;100.00;99201.94;5607063;31;33934;-71
2023/12/21 12:34:21;;;;;;;12.25;8.65;;;;;;;7.60;100.00;99188.38;5607745;31;33939;-72
2023/12/21 12:37:24;;;;;;;14.02;9.48;;;;;;;7.44;100.00;99207.00;5607583;31;35096;-72
2023/12/21 12:40:27;;;;;;;13.75;9.50;;;;;;;7.26;100.00;99185.37;5607763;31;35196;-71
2023/12/21 12:43:34;;;;;;;12.93;9.30;;;;;;;7.05;100.00;99180.72;5607978;31;33925;-73
2023/12/21 12:46:38;;;;;;;12.10;9.20;;;;;;;7.02;100.00;99182.88;5608568;31;33967;-72
2023/12/21 12:49:41;;;;;;;12.02;9.13;;;;;;;6.96;100.00;99163.31;5609211;31;34177;-73
2023/12/21 12:52:45;;;;;;;11.27;8.57;;;;;;;7.02;100.00;99145.97;5610094;31;34073;-72
2023/12/21 12:55:55;;;;;;;15.73;9.63;;;;;;;6.95;100.00;99128.22;5609997;31;33973;-72
2023/12/21 12:59:01;;;;;;;13.13;9.50;;;;;;;6.88;100.00;99129.88;5609914;31;34758;-72
2023/12/21 13:02:06;;;;;;;13.70;9.20;;;;;;;6.85;100.00;99105.69;5610002;31;34625;-72
2023/12/21 13:05:11;;;;;;;11.30;9.23;;;;;;;6.79;100.00;99109.84;5609636;31;34064;-72
2023/12/21 13:08:14;;;;;;;12.73;9.70;;;;;;;6.83;100.00;99089.22;5596067;31;34783;-72
2023/12/21 13:11:18;;;;;;;11.00;8.73;;;;;;;6.85;100.00;99101.25;5609373;31;33555;-72
2023/12/21 13:14:21;;;;;;;12.90;8.93;;;;;;;6.78;100.00;99086.28;5609025;31;34120;-71
2023/12/21 13:17:24;;;;;;;11.40;8.77;;;;;;;6.77;100.00;99076.78;5609615;31;33952;-71
2023/12/21 13:20:27;;;;;;;11.43;8.98;;;;;;;6.63;100.00;99074.88;5608817;31;33487;-72
2023/12/21 13:23:32;;;;;;;11.70;8.98;;;;;;;6.56;100.00;99061.56;5609550;31;34669;-72
2023/12/21 13:26:35;;;;;;;13.48;8.80;;;;;;;6.58;100.00;99046.44;5609049;31;33901;-72
2023/12/21 13:29:38;;;;;;;13.25;9.50;;;;;;;6.52;100.00;99034.75;5609705;31;34608;-71
2023/12/21 13:32:41;;;;;;;13.65;10.15;;;;;;;6.56;100.00;99032.59;5610067;31;33868;-72
2023/12/21 13:35:45;;;;;;;14.15;10.15;;;;;;;6.54;100.00;99024.03;5609819;31;34153;-71
2023/12/21 13:38:47;;;;;;;15.32;10.73;;;;;;;6.57;100.00;99012.34;5609560;31;34003;-71
2023/12/21 13:41:50;;;;;;;17.10;10.90;;;;;;;6.48;100.00;99009.78;5609565;31;33953;-70
2023/12/21 13:44:53;;;;;;;16.30;11.80;;;;;;;6.47;100.00;99002.03;5609539;31;34071;-71
2023/12/21 13:47:56;;;;;;;15.57;11.98;;;;;;;6.45;100.00;98996.09;5609466;31;33898;-71
2023/12/21 13:50:59;;;;;;;14.05;11.27;;;;;;;6.30;100.00;98984.69;5609334;31;34094;-72
2023/12/21 13:54:03;;;;;;;15.13;11.80;;;;;;;6.23;100.00;98970.59;5609431;31;34006;-71
2023/12/21 13:57:06;;;;;;;17.17;11.68;;;;;;;6.27;100.00;98964.78;5609286;31;35026;-71
2023/12/21 14:00:17;;;;;;;15.98;12.20;;;;;;;6.29;100.00;98948.81;5609574;31;33930;-72
2023/12/21 14:03:20;;;;;;;15.75;12.00;;;;;;;6.20;100.00;98939.31;5609844;31;34786;-72
2023/12/21 14:06:23;;;;;;;14.07;11.20;;;;;;;6.24;100.00;98945.91;5609529;31;34011;-72
2023/12/21 14:09:26;;;;;;;16.90;11.48;;;;;;;6.16;100.00;98952.03;5609319;31;34584;-73
2023/12/21 14:12:29;;;;;;;16.27;10.75;;;;;;;6.15;100.00;98960.91;5609243;31;34927;-71
2023/12/21 14:15:37;;;;;;;14.30;10.90;;;;;;;6.28;100.00;98948.00;5609187;31;33979;-71